sensor_id;sensor_type;location;lat;lon;timestamp;P1;durP1;ratioP1;P2;durP2;ratioP2
52248;SDS011;38541;48.130;8.378;2022-11-20T00:01:22;3.00;;;2.50;;
52248;SDS011;38541;48.130;8.378;2022-11-20T00:03:50;3.03;;;2.72;;
52248;SDS011;38541;48.130;8.378;2022-11-20T00:06:18;4.63;;;2.70;;
52248;SDS011;38541;48.130;8.378;2022-11-20T00:08:46;2.83;;;2.63;;
52248;SDS011;38541;48.130;8.378;2022-11-20T00:11:14;5.80;;;4.30;;
52248;SDS011;38541;48.130;8.378;2022-11-20T00:13:43;6.95;;;5.63;;
52248;SDS011;38541;48.130;8.378;2022-11-20T00:16:10;6.15;;;4.75;;
52248;SDS011;38541;48.130;8.378;2022-11-20T00:18:38;8.95;;;6.50;;
52248;SDS011;38541;48.130;8.378;2022-11-20T00:21:05;10.18;;;7.43;;
52248;SDS011;38541;48.130;8.378;2022-11-20T00:23:33;8.23;;;4.60;;
52248;SDS011;38541;48.130;8.378;2022-11-20T00:26:03;5.18;;;3.55;;
52248;SDS011;38541;48.130;8.378;2022-11-20T00:28:34;3.58;;;3.20;;
52248;SDS011;38541;48.130;8.378;2022-11-20T00:31:05;4.85;;;3.90;;
52248;SDS011;38541;48.130;8.378;2022-11-20T00:33:39;3.80;;;3.40;;
52248;SDS011;38541;48.130;8.378;2022-11-20T00:36:06;4.10;;;2.72;;
52248;SDS011;38541;48.130;8.378;2022-11-20T00:38:35;2.45;;;2.25;;
52248;SDS011;38541;48.130;8.378;2022-11-20T00:41:03;3.00;;;2.28;;
52248;SDS011;38541;48.130;8.378;2022-11-20T00:43:31;3.90;;;2.42;;
52248;SDS011;38541;48.130;8.378;2022-11-20T00:45:58;2.38;;;2.10;;
52248;SDS011;38541;48.130;8.378;2022-11-20T00:48:25;3.38;;;2.17;;
52248;SDS011;38541;48.130;8.378;2022-11-20T00:50:52;5.28;;;2.10;;
52248;SDS011;38541;48.130;8.378;2022-11-20T00:53:20;2.15;;;2.00;;
52248;SDS011;38541;48.130;8.378;2022-11-20T00:55:53;2.20;;;2.05;;
52248;SDS011;38541;48.130;8.378;2022-11-20T00:58:20;4.32;;;2.05;;
52248;SDS011;38541;48.130;8.378;2022-11-20T01:00:47;2.38;;;2.17;;
52248;SDS011;38541;48.130;8.378;2022-11-20T01:03:19;2.88;;;2.53;;
52248;SDS011;38541;48.130;8.378;2022-11-20T01:05:52;1.92;;;1.83;;
52248;SDS011;38541;48.130;8.378;2022-11-20T01:08:18;2.30;;;2.10;;
52248;SDS011;38541;48.130;8.378;2022-11-20T01:10:44;2.45;;;2.25;;
52248;SDS011;38541;48.130;8.378;2022-11-20T01:13:11;2.40;;;2.20;;
52248;SDS011;38541;48.130;8.378;2022-11-20T01:16:01;3.35;;;2.75;;
52248;SDS011;38541;48.130;8.378;2022-11-20T01:18:29;2.97;;;2.70;;
52248;SDS011;38541;48.130;8.378;2022-11-20T01:20:55;3.03;;;2.55;;
52248;SDS011;38541;48.130;8.378;2022-11-20T01:23:26;2.20;;;2.10;;
52248;SDS011;38541;48.130;8.378;2022-11-20T01:25:56;2.03;;;1.92;;
52248;SDS011;38541;48.130;8.378;2022-11-20T01:28:25;2.72;;;2.53;;
52248;SDS011;38541;48.130;8.378;2022-11-20T01:30:51;2.05;;;1.92;;
52248;SDS011;38541;48.130;8.378;2022-11-20T01:33:17;2.50;;;2.30;;
52248;SDS011;38541;48.130;8.378;2022-11-20T01:35:44;2.05;;;1.85;;
52248;SDS011;38541;48.130;8.378;2022-11-20T01:38:10;2.05;;;1.80;;
52248;SDS011;38541;48.130;8.378;2022-11-20T01:40:37;1.70;;;1.60;;
52248;SDS011;38541;48.130;8.378;2022-11-20T01:43:19;2.00;;;1.90;;
52248;SDS011;38541;48.130;8.378;2022-11-20T01:46:00;1.20;;;1.10;;
52248;SDS011;38541;48.130;8.378;2022-11-20T01:48:32;2.33;;;2.13;;
52248;SDS011;38541;48.130;8.378;2022-11-20T01:51:03;1.65;;;1.50;;
52248;SDS011;38541;48.130;8.378;2022-11-20T01:53:32;2.10;;;1.90;;
52248;SDS011;38541;48.130;8.378;2022-11-20T01:56:02;2.03;;;1.80;;
52248;SDS011;38541;48.130;8.378;2022-11-20T01:58:33;1.70;;;1.60;;
52248;SDS011;38541;48.130;8.378;2022-11-20T02:01:03;1.52;;;1.42;;
52248;SDS011;38541;48.130;8.378;2022-11-20T02:03:30;1.98;;;1.88;;
52248;SDS011;38541;48.130;8.378;2022-11-20T02:06:06;1.77;;;1.67;;
52248;SDS011;38541;48.130;8.378;2022-11-20T02:08:38;1.50;;;1.40;;
52248;SDS011;38541;48.130;8.378;2022-11-20T02:11:05;2.30;;;1.60;;
52248;SDS011;38541;48.130;8.378;2022-11-20T02:13:32;1.90;;;1.50;;
52248;SDS011;38541;48.130;8.378;2022-11-20T02:16:13;1.65;;;1.42;;
52248;SDS011;38541;48.130;8.378;2022-11-20T02:18:40;2.25;;;1.60;;
52248;SDS011;38541;48.130;8.378;2022-11-20T02:21:28;1.60;;;1.50;;
52248;SDS011;38541;48.130;8.378;2022-11-20T02:29:44;1.52;;;1.42;;
52248;SDS011;38541;48.130;8.378;2022-11-20T02:34:57;1.25;;;1.23;;
52248;SDS011;38541;48.130;8.378;2022-11-20T02:37:26;1.70;;;1.60;;
52248;SDS011;38541;48.130;8.378;2022-11-20T02:39:58;1.70;;;1.60;;
52248;SDS011;38541;48.130;8.378;2022-11-20T02:42:24;1.58;;;1.48;;
52248;SDS011;38541;48.130;8.378;2022-11-20T02:44:51;1.60;;;1.50;;
52248;SDS011;38541;48.130;8.378;2022-11-20T02:47:17;1.60;;;1.50;;
52248;SDS011;38541;48.130;8.378;2022-11-20T02:49:44;1.70;;;1.60;;
52248;SDS011;38541;48.130;8.378;2022-11-20T02:52:10;1.50;;;1.40;;
52248;SDS011;38541;48.130;8.378;2022-11-20T02:54:36;1.52;;;1.42;;
52248;SDS011;38541;48.130;8.378;2022-11-20T02:57:03;2.28;;;1.40;;
52248;SDS011;38541;48.130;8.378;2022-11-20T02:59:29;1.30;;;1.20;;
52248;SDS011;38541;48.130;8.378;2022-11-20T03:01:56;1.52;;;1.42;;
52248;SDS011;38541;48.130;8.378;2022-11-20T03:04:22;1.48;;;1.40;;
52248;SDS011;38541;48.130;8.378;2022-11-20T03:06:48;1.15;;;1.10;;
52248;SDS011;38541;48.130;8.378;2022-11-20T03:09:15;1.98;;;1.40;;
52248;SDS011;38541;48.130;8.378;2022-11-20T03:11:41;1.27;;;1.17;;
52248;SDS011;38541;48.130;8.378;2022-11-20T03:14:08;1.30;;;1.23;;
52248;SDS011;38541;48.130;8.378;2022-11-20T03:16:34;1.40;;;1.20;;
52248;SDS011;38541;48.130;8.378;2022-11-20T03:19:01;1.10;;;1.10;;
52248;SDS011;38541;48.130;8.378;2022-11-20T03:21:27;1.77;;;1.17;;
52248;SDS011;38541;48.130;8.378;2022-11-20T03:23:54;1.58;;;1.48;;
52248;SDS011;38541;48.130;8.378;2022-11-20T03:26:21;1.10;;;1.10;;
52248;SDS011;38541;48.130;8.378;2022-11-20T03:28:50;2.55;;;1.40;;
52248;SDS011;38541;48.130;8.378;2022-11-20T03:31:20;1.63;;;1.52;;
52248;SDS011;38541;48.130;8.378;2022-11-20T03:33:48;1.50;;;1.40;;
52248;SDS011;38541;48.130;8.378;2022-11-20T03:36:15;1.50;;;1.38;;
52248;SDS011;38541;48.130;8.378;2022-11-20T03:38:43;1.50;;;1.33;;
52248;SDS011;38541;48.130;8.378;2022-11-20T03:41:11;1.30;;;1.25;;
52248;SDS011;38541;48.130;8.378;2022-11-20T03:43:39;1.42;;;1.33;;
52248;SDS011;38541;48.130;8.378;2022-11-20T03:46:06;1.40;;;1.30;;
52248;SDS011;38541;48.130;8.378;2022-11-20T03:48:33;1.30;;;1.20;;
52248;SDS011;38541;48.130;8.378;2022-11-20T03:51:10;1.05;;;1.05;;
52248;SDS011;38541;48.130;8.378;2022-11-20T03:53:39;1.10;;;1.10;;
52248;SDS011;38541;48.130;8.378;2022-11-20T03:56:07;1.25;;;1.15;;
52248;SDS011;38541;48.130;8.378;2022-11-20T03:58:34;1.40;;;1.30;;
52248;SDS011;38541;48.130;8.378;2022-11-20T04:01:06;1.42;;;1.33;;
52248;SDS011;38541;48.130;8.378;2022-11-20T04:03:35;1.80;;;1.27;;
52248;SDS011;38541;48.130;8.378;2022-11-20T04:06:10;1.33;;;1.33;;
52248;SDS011;38541;48.130;8.378;2022-11-20T04:08:36;3.42;;;1.65;;
52248;SDS011;38541;48.130;8.378;2022-11-20T04:13:42;1.80;;;1.70;;
52248;SDS011;38541;48.130;8.378;2022-11-20T04:16:13;1.90;;;1.80;;
52248;SDS011;38541;48.130;8.378;2022-11-20T04:18:39;3.05;;;1.85;;
52248;SDS011;38541;48.130;8.378;2022-11-20T04:21:06;2.55;;;1.88;;
52248;SDS011;38541;48.130;8.378;2022-11-20T04:23:33;2.13;;;1.92;;
52248;SDS011;38541;48.130;8.378;2022-11-20T04:26:04;1.88;;;1.77;;
52248;SDS011;38541;48.130;8.378;2022-11-20T04:28:32;2.42;;;1.40;;
52248;SDS011;38541;48.130;8.378;2022-11-20T04:31:02;1.60;;;1.50;;
52248;SDS011;38541;48.130;8.378;2022-11-20T04:33:31;2.33;;;2.15;;
52248;SDS011;38541;48.130;8.378;2022-11-20T04:36:03;1.88;;;1.77;;
52248;SDS011;38541;48.130;8.378;2022-11-20T04:38:31;2.10;;;1.90;;
52248;SDS011;38541;48.130;8.378;2022-11-20T04:40:59;1.88;;;1.77;;
52248;SDS011;38541;48.130;8.378;2022-11-20T04:43:26;1.63;;;1.52;;
52248;SDS011;38541;48.130;8.378;2022-11-20T04:45:54;1.95;;;1.80;;
52248;SDS011;38541;48.130;8.378;2022-11-20T04:48:21;2.70;;;1.52;;
52248;SDS011;38541;48.130;8.378;2022-11-20T04:50:48;1.70;;;1.60;;
52248;SDS011;38541;48.130;8.378;2022-11-20T04:53:14;1.80;;;1.70;;
52248;SDS011;38541;48.130;8.378;2022-11-20T04:55:41;1.70;;;1.60;;
52248;SDS011;38541;48.130;8.378;2022-11-20T04:58:07;2.10;;;1.90;;
52248;SDS011;38541;48.130;8.378;2022-11-20T05:00:34;2.13;;;1.98;;
52248;SDS011;38541;48.130;8.378;2022-11-20T05:03:01;1.67;;;1.58;;
52248;SDS011;38541;48.130;8.378;2022-11-20T05:05:27;1.60;;;1.50;;
52248;SDS011;38541;48.130;8.378;2022-11-20T05:07:55;1.88;;;1.60;;
52248;SDS011;38541;48.130;8.378;2022-11-20T05:10:23;1.70;;;1.60;;
52248;SDS011;38541;48.130;8.378;2022-11-20T05:12:53;1.70;;;1.60;;
52248;SDS011;38541;48.130;8.378;2022-11-20T05:15:19;1.27;;;1.20;;
52248;SDS011;38541;48.130;8.378;2022-11-20T05:17:47;1.00;;;1.00;;
52248;SDS011;38541;48.130;8.378;2022-11-20T05:20:17;1.70;;;1.00;;
52248;SDS011;38541;48.130;8.378;2022-11-20T05:22:44;1.20;;;1.10;;
52248;SDS011;38541;48.130;8.378;2022-11-20T05:25:11;1.38;;;1.27;;
52248;SDS011;38541;48.130;8.378;2022-11-20T05:27:38;1.20;;;1.20;;
52248;SDS011;38541;48.130;8.378;2022-11-20T05:30:05;1.10;;;1.10;;
52248;SDS011;38541;48.130;8.378;2022-11-20T05:32:32;1.50;;;1.40;;
52248;SDS011;38541;48.130;8.378;2022-11-20T05:34:58;1.30;;;1.30;;
52248;SDS011;38541;48.130;8.378;2022-11-20T05:37:25;1.00;;;1.00;;
52248;SDS011;38541;48.130;8.378;2022-11-20T05:39:52;1.77;;;1.30;;
52248;SDS011;38541;48.130;8.378;2022-11-20T05:42:18;1.50;;;1.42;;
52248;SDS011;38541;48.130;8.378;2022-11-20T05:45:01;1.48;;;1.38;;
52248;SDS011;38541;48.130;8.378;2022-11-20T05:47:32;2.13;;;1.75;;
52248;SDS011;38541;48.130;8.378;2022-11-20T05:50:00;2.38;;;1.83;;
52248;SDS011;38541;48.130;8.378;2022-11-20T05:52:30;1.92;;;1.50;;
52248;SDS011;38541;48.130;8.378;2022-11-20T05:54:56;2.05;;;1.70;;
52248;SDS011;38541;48.130;8.378;2022-11-20T05:57:23;1.52;;;1.42;;
52248;SDS011;38541;48.130;8.378;2022-11-20T05:59:49;1.35;;;1.25;;
52248;SDS011;38541;48.130;8.378;2022-11-20T06:02:16;1.58;;;1.48;;
52248;SDS011;38541;48.130;8.378;2022-11-20T06:04:42;1.70;;;1.60;;
52248;SDS011;38541;48.130;8.378;2022-11-20T06:07:09;1.20;;;1.02;;
52248;SDS011;38541;48.130;8.378;2022-11-20T06:09:35;1.10;;;1.10;;
52248;SDS011;38541;48.130;8.378;2022-11-20T06:12:02;1.80;;;1.70;;
52248;SDS011;38541;48.130;8.378;2022-11-20T06:14:28;1.77;;;1.67;;
52248;SDS011;38541;48.130;8.378;2022-11-20T06:16:55;1.40;;;1.30;;
52248;SDS011;38541;48.130;8.378;2022-11-20T06:19:21;1.73;;;1.63;;
52248;SDS011;38541;48.130;8.378;2022-11-20T06:21:48;1.40;;;1.35;;
52248;SDS011;38541;48.130;8.378;2022-11-20T06:24:16;2.28;;;1.40;;
52248;SDS011;38541;48.130;8.378;2022-11-20T06:26:43;3.58;;;2.17;;
52248;SDS011;38541;48.130;8.378;2022-11-20T06:29:09;1.83;;;1.73;;
52248;SDS011;38541;48.130;8.378;2022-11-20T06:31:36;2.53;;;2.33;;
52248;SDS011;38541;48.130;8.378;2022-11-20T06:34:04;1.60;;;1.50;;
52248;SDS011;38541;48.130;8.378;2022-11-20T06:36:32;1.40;;;1.30;;
52248;SDS011;38541;48.130;8.378;2022-11-20T06:38:59;1.30;;;1.25;;
52248;SDS011;38541;48.130;8.378;2022-11-20T06:41:26;1.83;;;1.73;;
52248;SDS011;38541;48.130;8.378;2022-11-20T06:43:54;1.33;;;1.23;;
52248;SDS011;38541;48.130;8.378;2022-11-20T06:46:20;1.40;;;1.30;;
52248;SDS011;38541;48.130;8.378;2022-11-20T06:48:47;1.27;;;1.20;;
52248;SDS011;38541;48.130;8.378;2022-11-20T06:51:14;0.90;;;0.90;;
52248;SDS011;38541;48.130;8.378;2022-11-20T06:53:41;1.00;;;1.00;;
52248;SDS011;38541;48.130;8.378;2022-11-20T06:56:08;1.05;;;0.95;;
52248;SDS011;38541;48.130;8.378;2022-11-20T06:58:35;1.50;;;1.30;;
52248;SDS011;38541;48.130;8.378;2022-11-20T07:01:03;1.40;;;1.30;;
52248;SDS011;38541;48.130;8.378;2022-11-20T07:03:35;0.90;;;0.90;;
52248;SDS011;38541;48.130;8.378;2022-11-20T07:06:02;0.70;;;0.70;;
52248;SDS011;38541;48.130;8.378;2022-11-20T07:08:29;0.80;;;0.80;;
52248;SDS011;38541;48.130;8.378;2022-11-20T07:10:59;1.33;;;1.23;;
52248;SDS011;38541;48.130;8.378;2022-11-20T07:13:27;0.93;;;0.93;;
52248;SDS011;38541;48.130;8.378;2022-11-20T07:15:54;0.70;;;0.70;;
52248;SDS011;38541;48.130;8.378;2022-11-20T07:18:21;1.00;;;1.00;;
52248;SDS011;38541;48.130;8.378;2022-11-20T07:20:47;1.30;;;1.20;;
52248;SDS011;38541;48.130;8.378;2022-11-20T07:23:13;0.98;;;0.98;;
52248;SDS011;38541;48.130;8.378;2022-11-20T07:25:40;0.80;;;0.80;;
52248;SDS011;38541;48.130;8.378;2022-11-20T07:28:06;0.80;;;0.80;;
52248;SDS011;38541;48.130;8.378;2022-11-20T07:30:33;0.75;;;0.75;;
52248;SDS011;38541;48.130;8.378;2022-11-20T07:32:59;0.80;;;0.80;;
52248;SDS011;38541;48.130;8.378;2022-11-20T07:35:26;1.00;;;1.00;;
52248;SDS011;38541;48.130;8.378;2022-11-20T07:37:52;0.70;;;0.70;;
52248;SDS011;38541;48.130;8.378;2022-11-20T07:40:19;1.00;;;1.00;;
52248;SDS011;38541;48.130;8.378;2022-11-20T07:42:49;0.80;;;0.80;;
52248;SDS011;38541;48.130;8.378;2022-11-20T07:45:17;0.82;;;0.82;;
52248;SDS011;38541;48.130;8.378;2022-11-20T07:47:48;0.68;;;0.68;;
52248;SDS011;38541;48.130;8.378;2022-11-20T07:50:15;1.75;;;1.13;;
52248;SDS011;38541;48.130;8.378;2022-11-20T07:52:41;0.88;;;0.88;;
52248;SDS011;38541;48.130;8.378;2022-11-20T07:55:09;0.63;;;0.63;;
52248;SDS011;38541;48.130;8.378;2022-11-20T07:57:35;0.60;;;0.60;;
52248;SDS011;38541;48.130;8.378;2022-11-20T08:00:03;0.68;;;0.68;;
52248;SDS011;38541;48.130;8.378;2022-11-20T08:02:37;0.60;;;0.60;;
52248;SDS011;38541;48.130;8.378;2022-11-20T08:05:05;0.80;;;0.80;;
52248;SDS011;38541;48.130;8.378;2022-11-20T08:07:39;0.80;;;0.80;;
52248;SDS011;38541;48.130;8.378;2022-11-20T08:10:08;0.73;;;0.73;;
52248;SDS011;38541;48.130;8.378;2022-11-20T08:12:36;0.98;;;0.75;;
52248;SDS011;38541;48.130;8.378;2022-11-20T08:15:27;0.90;;;0.90;;
52248;SDS011;38541;48.130;8.378;2022-11-20T08:18:01;1.17;;;1.08;;
52248;SDS011;38541;48.130;8.378;2022-11-20T08:20:52;1.40;;;0.90;;
52248;SDS011;38541;48.130;8.378;2022-11-20T08:23:18;3.08;;;2.78;;
52248;SDS011;38541;48.130;8.378;2022-11-20T08:25:48;2.90;;;2.35;;
52248;SDS011;38541;48.130;8.378;2022-11-20T08:28:15;1.10;;;1.02;;
52248;SDS011;38541;48.130;8.378;2022-11-20T08:30:47;3.20;;;0.98;;
52248;SDS011;38541;48.130;8.378;2022-11-20T08:33:13;0.93;;;0.93;;
52248;SDS011;38541;48.130;8.378;2022-11-20T08:35:40;0.77;;;0.75;;
52248;SDS011;38541;48.130;8.378;2022-11-20T08:38:08;0.77;;;0.77;;
52248;SDS011;38541;48.130;8.378;2022-11-20T08:40:34;1.20;;;0.90;;
52248;SDS011;38541;48.130;8.378;2022-11-20T08:43:01;1.15;;;0.80;;
52248;SDS011;38541;48.130;8.378;2022-11-20T08:45:27;0.77;;;0.77;;
52248;SDS011;38541;48.130;8.378;2022-11-20T08:48:00;0.88;;;0.82;;
52248;SDS011;38541;48.130;8.378;2022-11-20T08:50:27;0.82;;;0.70;;
52248;SDS011;38541;48.130;8.378;2022-11-20T08:52:53;0.65;;;0.65;;
52248;SDS011;38541;48.130;8.378;2022-11-20T08:55:20;2.65;;;2.35;;
52248;SDS011;38541;48.130;8.378;2022-11-20T08:57:46;4.30;;;2.88;;
52248;SDS011;38541;48.130;8.378;2022-11-20T09:00:16;0.85;;;0.85;;
52248;SDS011;38541;48.130;8.378;2022-11-20T09:02:42;0.60;;;0.60;;
52248;SDS011;38541;48.130;8.378;2022-11-20T09:05:09;0.57;;;0.57;;
52248;SDS011;38541;48.130;8.378;2022-11-20T09:07:35;0.70;;;0.70;;
52248;SDS011;38541;48.130;8.378;2022-11-20T09:10:02;0.70;;;0.70;;
52248;SDS011;38541;48.130;8.378;2022-11-20T09:12:49;2.58;;;1.95;;
52248;SDS011;38541;48.130;8.378;2022-11-20T09:15:17;1.20;;;1.10;;
52248;SDS011;38541;48.130;8.378;2022-11-20T09:17:54;1.70;;;1.60;;
52248;SDS011;38541;48.130;8.378;2022-11-20T09:20:21;1.10;;;1.00;;
52248;SDS011;38541;48.130;8.378;2022-11-20T09:22:48;3.67;;;1.13;;
52248;SDS011;38541;48.130;8.378;2022-11-20T09:25:14;0.70;;;0.70;;
52248;SDS011;38541;48.130;8.378;2022-11-20T09:27:41;0.70;;;0.70;;
52248;SDS011;38541;48.130;8.378;2022-11-20T09:30:09;0.70;;;0.70;;
52248;SDS011;38541;48.130;8.378;2022-11-20T09:32:38;1.48;;;1.20;;
52248;SDS011;38541;48.130;8.378;2022-11-20T09:35:05;0.77;;;0.77;;
52248;SDS011;38541;48.130;8.378;2022-11-20T09:37:32;0.90;;;0.90;;
52248;SDS011;38541;48.130;8.378;2022-11-20T09:39:58;0.80;;;0.80;;
52248;SDS011;38541;48.130;8.378;2022-11-20T09:42:37;0.93;;;0.93;;
52248;SDS011;38541;48.130;8.378;2022-11-20T09:45:14;0.93;;;0.80;;
52248;SDS011;38541;48.130;8.378;2022-11-20T09:47:55;1.33;;;1.23;;
52248;SDS011;38541;48.130;8.378;2022-11-20T09:50:50;2.13;;;1.80;;
52248;SDS011;38541;48.130;8.378;2022-11-20T09:56:24;1.23;;;1.10;;
52248;SDS011;38541;48.130;8.378;2022-11-20T09:58:52;1.20;;;1.10;;
52248;SDS011;38541;48.130;8.378;2022-11-20T10:01:22;0.88;;;0.88;;
52248;SDS011;38541;48.130;8.378;2022-11-20T10:07:03;1.42;;;1.17;;
52248;SDS011;38541;48.130;8.378;2022-11-20T10:10:04;1.42;;;1.33;;
52248;SDS011;38541;48.130;8.378;2022-11-20T10:26:30;2.08;;;1.65;;
52248;SDS011;38541;48.130;8.378;2022-11-20T10:29:17;2.10;;;1.57;;
52248;SDS011;38541;48.130;8.378;2022-11-20T10:31:54;1.40;;;1.15;;
52248;SDS011;38541;48.130;8.378;2022-11-20T10:36:54;1.90;;;1.80;;
52248;SDS011;38541;48.130;8.378;2022-11-20T10:39:26;1.80;;;1.70;;
52248;SDS011;38541;48.130;8.378;2022-11-20T10:42:01;2.78;;;1.45;;
52248;SDS011;38541;48.130;8.378;2022-11-20T10:44:29;1.60;;;1.50;;
52248;SDS011;38541;48.130;8.378;2022-11-20T10:47:20;6.80;;;3.38;;
52248;SDS011;38541;48.130;8.378;2022-11-20T10:49:57;4.82;;;2.28;;
52248;SDS011;38541;48.130;8.378;2022-11-20T11:00:37;5.88;;;2.80;;
52248;SDS011;38541;48.130;8.378;2022-11-20T11:03:07;9.85;;;4.07;;
52248;SDS011;38541;48.130;8.378;2022-11-20T11:08:35;5.15;;;2.50;;
52248;SDS011;38541;48.130;8.378;2022-11-20T11:13:46;1.55;;;1.45;;
52248;SDS011;38541;48.130;8.378;2022-11-20T11:16:30;5.57;;;2.10;;
52248;SDS011;38541;48.130;8.378;2022-11-20T11:19:06;1.70;;;1.60;;
52248;SDS011;38541;48.130;8.378;2022-11-20T11:21:38;2.70;;;1.45;;
52248;SDS011;38541;48.130;8.378;2022-11-20T11:27:11;1.38;;;1.23;;
52248;SDS011;38541;48.130;8.378;2022-11-20T11:29:43;3.03;;;2.72;;
52248;SDS011;38541;48.130;8.378;2022-11-20T11:34:39;1.70;;;1.60;;
52248;SDS011;38541;48.130;8.378;2022-11-20T11:37:17;1.48;;;1.38;;
52248;SDS011;38541;48.130;8.378;2022-11-20T11:39:45;1.58;;;1.33;;
52248;SDS011;38541;48.130;8.378;2022-11-20T11:42:24;3.92;;;2.35;;
52248;SDS011;38541;48.130;8.378;2022-11-20T11:44:51;1.92;;;1.52;;
52248;SDS011;38541;48.130;8.378;2022-11-20T11:47:36;9.77;;;3.00;;
52248;SDS011;38541;48.130;8.378;2022-11-20T11:52:46;1.65;;;1.42;;
52248;SDS011;38541;48.130;8.378;2022-11-20T11:55:31;1.58;;;1.48;;
52248;SDS011;38541;48.130;8.378;2022-11-20T11:58:14;7.00;;;2.53;;
52248;SDS011;38541;48.130;8.378;2022-11-20T12:03:38;2.83;;;1.60;;
52248;SDS011;38541;48.130;8.378;2022-11-20T12:06:11;2.05;;;1.85;;
52248;SDS011;38541;48.130;8.378;2022-11-20T12:08:51;3.88;;;2.03;;
52248;SDS011;38541;48.130;8.378;2022-11-20T12:14:45;1.45;;;1.35;;
52248;SDS011;38541;48.130;8.378;2022-11-20T12:17:00;1.00;;;1.00;;
52248;SDS011;38541;48.130;8.378;2022-11-20T12:19:29;1.10;;;1.10;;
52248;SDS011;38541;48.130;8.378;2022-11-20T12:22:05;1.00;;;1.00;;
52248;SDS011;38541;48.130;8.378;2022-11-20T12:30:33;1.17;;;0.90;;
52248;SDS011;38541;48.130;8.378;2022-11-20T12:39:39;0.80;;;0.80;;
52248;SDS011;38541;48.130;8.378;2022-11-20T12:45:18;1.00;;;1.00;;
52248;SDS011;38541;48.130;8.378;2022-11-20T12:54:01;0.93;;;0.93;;
52248;SDS011;38541;48.130;8.378;2022-11-20T12:56:48;1.02;;;1.00;;
52248;SDS011;38541;48.130;8.378;2022-11-20T12:59:33;1.50;;;1.40;;
52248;SDS011;38541;48.130;8.378;2022-11-20T13:02:16;2.53;;;1.13;;
52248;SDS011;38541;48.130;8.378;2022-11-20T13:04:49;1.20;;;1.10;;
52248;SDS011;38541;48.130;8.378;2022-11-20T13:07:27;0.90;;;0.90;;
52248;SDS011;38541;48.130;8.378;2022-11-20T13:09:54;1.35;;;1.10;;
52248;SDS011;38541;48.130;8.378;2022-11-20T13:12:25;1.17;;;1.08;;
52248;SDS011;38541;48.130;8.378;2022-11-20T13:15:49;1.33;;;1.17;;
52248;SDS011;38541;48.130;8.378;2022-11-20T13:17:59;0.80;;;0.80;;
52248;SDS011;38541;48.130;8.378;2022-11-20T13:20:28;1.20;;;1.20;;
52248;SDS011;38541;48.130;8.378;2022-11-20T13:22:56;1.27;;;1.20;;
52248;SDS011;38541;48.130;8.378;2022-11-20T13:25:30;1.77;;;1.20;;
52248;SDS011;38541;48.130;8.378;2022-11-20T13:28:03;1.67;;;1.08;;
52248;SDS011;38541;48.130;8.378;2022-11-20T13:30:54;1.15;;;1.13;;
52248;SDS011;38541;48.130;8.378;2022-11-20T13:33:32;1.85;;;1.27;;
52248;SDS011;38541;48.130;8.378;2022-11-20T13:36:01;1.23;;;1.05;;
52248;SDS011;38541;48.130;8.378;2022-11-20T13:38:49;1.05;;;0.95;;
52248;SDS011;38541;48.130;8.378;2022-11-20T13:41:31;1.40;;;0.90;;
52248;SDS011;38541;48.130;8.378;2022-11-20T13:44:10;1.10;;;1.10;;
52248;SDS011;38541;48.130;8.378;2022-11-20T13:49:14;1.27;;;1.17;;
52248;SDS011;38541;48.130;8.378;2022-11-20T13:51:46;1.50;;;1.40;;
52248;SDS011;38541;48.130;8.378;2022-11-20T13:57:42;1.25;;;1.08;;
52248;SDS011;38541;48.130;8.378;2022-11-20T14:02:39;0.98;;;0.85;;
52248;SDS011;38541;48.130;8.378;2022-11-20T14:05:11;1.85;;;1.08;;
52248;SDS011;38541;48.130;8.378;2022-11-20T14:07:45;1.00;;;1.00;;
52248;SDS011;38541;48.130;8.378;2022-11-20T14:10:21;1.00;;;1.00;;
52248;SDS011;38541;48.130;8.378;2022-11-20T14:12:56;1.15;;;0.88;;
52248;SDS011;38541;48.130;8.378;2022-11-20T14:15:24;3.13;;;1.08;;
52248;SDS011;38541;48.130;8.378;2022-11-20T14:20:37;1.05;;;1.05;;
52248;SDS011;38541;48.130;8.378;2022-11-20T14:23:05;1.48;;;1.35;;
52248;SDS011;38541;48.130;8.378;2022-11-20T14:25:36;1.95;;;1.20;;
52248;SDS011;38541;48.130;8.378;2022-11-20T14:28:03;1.17;;;1.10;;
52248;SDS011;38541;48.130;8.378;2022-11-20T14:30:43;3.33;;;2.60;;
52248;SDS011;38541;48.130;8.378;2022-11-20T14:33:13;1.40;;;1.30;;
52248;SDS011;38541;48.130;8.378;2022-11-20T14:35:45;0.93;;;0.93;;
52248;SDS011;38541;48.130;8.378;2022-11-20T14:38:15;1.35;;;1.10;;
52248;SDS011;38541;48.130;8.378;2022-11-20T14:40:44;1.15;;;1.10;;
52248;SDS011;38541;48.130;8.378;2022-11-20T14:45:55;1.17;;;1.08;;
52248;SDS011;38541;48.130;8.378;2022-11-20T14:48:27;1.20;;;1.10;;
52248;SDS011;38541;48.130;8.378;2022-11-20T14:50:57;1.33;;;1.23;;
52248;SDS011;38541;48.130;8.378;2022-11-20T14:53:24;1.38;;;1.27;;
52248;SDS011;38541;48.130;8.378;2022-11-20T14:55:55;1.67;;;1.58;;
52248;SDS011;38541;48.130;8.378;2022-11-20T14:58:27;1.80;;;1.70;;
52248;SDS011;38541;48.130;8.378;2022-11-20T15:00:57;1.40;;;1.30;;
52248;SDS011;38541;48.130;8.378;2022-11-20T15:03:39;1.30;;;1.20;;
52248;SDS011;38541;48.130;8.378;2022-11-20T15:06:07;1.50;;;1.40;;
52248;SDS011;38541;48.130;8.378;2022-11-20T15:08:37;1.40;;;1.30;;
52248;SDS011;38541;48.130;8.378;2022-11-20T15:11:15;1.92;;;1.83;;
52248;SDS011;38541;48.130;8.378;2022-11-20T15:13:51;1.50;;;1.30;;
52248;SDS011;38541;48.130;8.378;2022-11-20T15:16:18;2.15;;;1.35;;
52248;SDS011;38541;48.130;8.378;2022-11-20T15:18:47;1.30;;;1.20;;
52248;SDS011;38541;48.130;8.378;2022-11-20T15:21:15;1.25;;;1.10;;
52248;SDS011;38541;48.130;8.378;2022-11-20T15:23:43;2.35;;;1.23;;
52248;SDS011;38541;48.130;8.378;2022-11-20T15:26:11;1.23;;;1.05;;
52248;SDS011;38541;48.130;8.378;2022-11-20T15:28:46;1.02;;;1.00;;
52248;SDS011;38541;48.130;8.378;2022-11-20T15:31:15;1.85;;;1.27;;
52248;SDS011;38541;48.130;8.378;2022-11-20T15:33:43;1.48;;;1.00;;
52248;SDS011;38541;48.130;8.378;2022-11-20T15:36:10;2.15;;;1.23;;
52248;SDS011;38541;48.130;8.378;2022-11-20T15:38:37;1.63;;;1.52;;
52248;SDS011;38541;48.130;8.378;2022-11-20T15:41:04;0.85;;;0.82;;
52248;SDS011;38541;48.130;8.378;2022-11-20T15:43:31;0.90;;;0.90;;
52248;SDS011;38541;48.130;8.378;2022-11-20T15:46:02;1.30;;;1.10;;
52248;SDS011;38541;48.130;8.378;2022-11-20T15:48:44;1.05;;;1.05;;
52248;SDS011;38541;48.130;8.378;2022-11-20T15:51:24;1.50;;;1.20;;
52248;SDS011;38541;48.130;8.378;2022-11-20T15:53:54;2.00;;;1.80;;
52248;SDS011;38541;48.130;8.378;2022-11-20T15:56:22;2.00;;;1.88;;
52248;SDS011;38541;48.130;8.378;2022-11-20T15:58:48;1.73;;;1.40;;
52248;SDS011;38541;48.130;8.378;2022-11-20T16:01:16;1.50;;;1.40;;
52248;SDS011;38541;48.130;8.378;2022-11-20T16:03:44;2.10;;;1.90;;
52248;SDS011;38541;48.130;8.378;2022-11-20T16:06:11;2.00;;;1.80;;
52248;SDS011;38541;48.130;8.378;2022-11-20T16:08:38;1.60;;;1.50;;
52248;SDS011;38541;48.130;8.378;2022-11-20T16:11:04;1.50;;;1.40;;
52248;SDS011;38541;48.130;8.378;2022-11-20T16:13:31;1.58;;;1.48;;
52248;SDS011;38541;48.130;8.378;2022-11-20T16:16:38;1.20;;;1.20;;
52248;SDS011;38541;48.130;8.378;2022-11-20T16:19:05;1.10;;;1.00;;
52248;SDS011;38541;48.130;8.378;2022-11-20T16:21:32;1.02;;;0.80;;
52248;SDS011;38541;48.130;8.378;2022-11-20T16:24:03;1.00;;;1.00;;
52248;SDS011;38541;48.130;8.378;2022-11-20T16:26:31;1.90;;;1.50;;
52248;SDS011;38541;48.130;8.378;2022-11-20T16:28:59;1.73;;;1.63;;
52248;SDS011;38541;48.130;8.378;2022-11-20T16:31:27;1.55;;;1.23;;
52248;SDS011;38541;48.130;8.378;2022-11-20T16:33:54;1.92;;;1.40;;
52248;SDS011;38541;48.130;8.378;2022-11-20T16:36:22;2.97;;;1.80;;
52248;SDS011;38541;48.130;8.378;2022-11-20T16:38:54;2.75;;;1.95;;
52248;SDS011;38541;48.130;8.378;2022-11-20T16:41:23;1.30;;;1.20;;
52248;SDS011;38541;48.130;8.378;2022-11-20T16:43:52;1.73;;;1.20;;